createdAt,value
2018-01-12T00:02:21.235Z,3.40
2018-01-12T00:04:48.732Z,3.30
2018-01-12T00:07:16.983Z,3.30
2018-01-12T00:09:44.472Z,3.30
2018-01-12T00:12:11.968Z,3.30
2018-01-12T00:14:39.498Z,3.30
2018-01-12T00:17:06.981Z,3.40
2018-01-12T00:19:34.472Z,3.40
2018-01-12T00:22:01.941Z,3.40
2018-01-12T00:24:30.205Z,3.30
2018-01-12T00:26:57.685Z,3.30
2018-01-12T00:29:25.949Z,3.30
2018-01-12T00:31:54.184Z,3.30
2018-01-12T00:34:22.078Z,3.30
2018-01-12T00:36:49.564Z,3.40
2018-01-12T00:39:17.839Z,3.30
2018-01-12T00:41:46.080Z,3.30
2018-01-12T00:44:13.573Z,3.30
2018-01-12T00:46:41.816Z,3.40
2018-01-12T00:49:09.296Z,3.40
2018-01-12T00:51:37.533Z,3.30
2018-01-12T00:54:05.238Z,3.30
2018-01-12T00:56:33.489Z,3.30
2018-01-12T00:59:07.202Z,3.30
2018-01-12T01:01:34.680Z,3.30
2018-01-12T01:04:02.924Z,3.30
2018-01-12T01:06:30.412Z,3.30
2018-01-12T01:08:58.643Z,3.20
2018-01-12T01:11:26.699Z,3.20
2018-01-12T01:13:54.167Z,3.20
2018-01-12T01:16:21.656Z,3.20
2018-01-12T01:18:49.124Z,3.30
2018-01-12T01:21:17.396Z,3.20
2018-01-12T01:23:44.860Z,3.20
2018-01-12T01:26:13.115Z,3.30
2018-01-12T01:28:41.356Z,3.20
2018-01-12T01:31:08.852Z,3.20
2018-01-12T01:33:36.328Z,3.20
2018-01-12T01:36:04.575Z,3.30
2018-01-12T01:38:32.055Z,3.20
2018-01-12T01:41:00.306Z,3.20
2018-01-12T01:43:27.785Z,3.20
2018-01-12T01:45:56.046Z,3.20
2018-01-12T01:48:35.329Z,3.20
2018-01-12T01:51:03.583Z,3.20
2018-01-12T01:53:31.815Z,3.20
2018-01-12T01:55:59.316Z,3.20
2018-01-12T01:58:27.543Z,3.20
2018-01-12T02:00:55.046Z,3.20
2018-01-12T02:03:23.283Z,3.20
2018-01-12T02:05:50.780Z,3.20
2018-01-12T02:08:19.033Z,3.10
2018-01-12T02:10:46.528Z,3.10
2018-01-12T02:13:14.002Z,3.20
2018-01-12T02:15:45.300Z,3.10
2018-01-12T02:18:14.111Z,3.10
2018-01-12T02:20:42.365Z,3.10
2018-01-12T02:23:09.844Z,3.10
2018-01-12T02:25:38.097Z,3.00
2018-01-12T02:28:05.629Z,3.10
2018-01-12T02:30:33.071Z,3.20
2018-01-12T02:33:00.551Z,3.20
2018-01-12T02:35:28.986Z,3.30
2018-01-12T02:37:56.483Z,3.20
2018-01-12T02:40:23.964Z,3.20
2018-01-12T02:42:51.536Z,3.20
2018-01-12T02:45:19.016Z,3.30
2018-01-12T02:47:47.252Z,3.30
2018-01-12T02:50:14.719Z,3.30
2018-01-12T02:52:42.209Z,3.30
2018-01-12T02:55:10.440Z,3.30
2018-01-12T02:57:37.916Z,3.30
2018-01-12T03:00:05.835Z,3.30
2018-01-12T03:02:33.332Z,3.30
2018-01-12T03:05:00.808Z,3.30
2018-01-12T03:07:29.141Z,3.20
2018-01-12T03:09:56.639Z,3.20
2018-01-12T03:12:24.888Z,3.20
2018-01-12T03:14:52.359Z,3.20
2018-01-12T03:17:19.839Z,3.20
2018-01-12T03:19:48.072Z,3.10
2018-01-12T03:22:16.468Z,3.10
2018-01-12T03:24:43.940Z,3.10
2018-01-12T03:27:11.415Z,3.20
2018-01-12T03:29:39.722Z,3.20
2018-01-12T03:32:07.211Z,3.20
2018-01-12T03:34:34.688Z,3.30
2018-01-12T03:37:02.358Z,3.30
2018-01-12T03:39:30.584Z,3.20
2018-01-12T03:41:58.063Z,3.20
2018-01-12T03:44:25.549Z,3.20
2018-01-12T03:46:53.011Z,3.10
2018-01-12T03:49:21.299Z,3.20
2018-01-12T03:51:49.537Z,3.20
2018-01-12T03:54:18.203Z,3.20
2018-01-12T03:56:45.668Z,3.20
2018-01-12T03:59:13.143Z,3.20
2018-01-12T04:01:40.608Z,3.20
2018-01-12T04:04:08.088Z,3.20
2018-01-12T04:06:36.323Z,3.20
2018-01-12T04:09:03.820Z,3.20
2018-01-12T04:11:32.059Z,3.20
2018-01-12T04:13:59.564Z,3.20
2018-01-12T04:16:27.036Z,3.20
2018-01-12T04:18:54.518Z,3.20
2018-01-12T04:21:21.976Z,3.20
2018-01-12T04:23:49.464Z,3.20
2018-01-12T04:26:16.946Z,3.30
2018-01-12T04:28:45.200Z,3.20
2018-01-12T04:31:12.667Z,3.20
2018-01-12T04:33:40.936Z,3.20
2018-01-12T04:36:08.412Z,3.20
2018-01-12T04:38:36.660Z,3.20
2018-01-12T04:41:04.120Z,3.20
2018-01-12T04:43:31.587Z,3.30
2018-01-12T04:45:59.827Z,3.20
2018-01-12T04:48:27.308Z,3.20
2018-01-12T04:50:54.792Z,3.20
2018-01-12T04:53:23.047Z,3.20
2018-01-12T04:55:50.521Z,3.20
2018-01-12T04:58:18.773Z,3.30
2018-01-12T05:00:47.015Z,3.30
2018-01-12T05:03:14.514Z,3.30
2018-01-12T05:05:41.983Z,3.30
2018-01-12T05:08:10.224Z,3.20
2018-01-12T05:10:37.815Z,3.20
2018-01-12T05:13:06.061Z,3.20
2018-01-12T05:15:33.573Z,3.20
2018-01-12T05:18:01.111Z,3.20
2018-01-12T05:20:29.353Z,3.20
2018-01-12T05:22:56.849Z,3.20
2018-01-12T05:25:25.084Z,3.30
2018-01-12T05:27:52.567Z,3.20
2018-01-12T05:30:20.052Z,3.20
2018-01-12T05:32:47.533Z,3.30
2018-01-12T05:35:21.399Z,3.30
2018-01-12T05:37:49.650Z,3.20
2018-01-12T05:40:17.133Z,3.20
2018-01-12T05:42:45.368Z,3.20
2018-01-12T05:45:12.872Z,3.20
2018-01-12T05:47:41.125Z,3.20
2018-01-12T05:50:08.595Z,3.20
2018-01-12T05:52:36.067Z,3.20
2018-01-12T05:55:04.324Z,3.30
2018-01-12T05:57:31.794Z,3.20
2018-01-12T06:00:00.054Z,3.20
2018-01-12T06:02:39.443Z,3.30
2018-01-12T06:05:19.363Z,3.30
2018-01-12T06:07:47.591Z,3.30
2018-01-12T06:10:15.073Z,3.30
2018-01-12T06:12:42.542Z,3.30
2018-01-12T06:15:11.657Z,3.40
2018-01-12T06:17:39.132Z,3.30
2018-01-12T06:20:06.643Z,3.30
2018-01-12T06:22:34.133Z,3.40
2018-01-12T06:25:03.169Z,3.40
2018-01-12T06:27:30.639Z,3.40
2018-01-12T06:29:58.111Z,3.40
2018-01-12T06:32:25.600Z,3.40
2018-01-12T06:34:53.060Z,3.40
2018-01-12T06:37:20.539Z,3.40
2018-01-12T06:39:48.090Z,3.40
2018-01-12T06:42:15.563Z,3.40
2018-01-12T06:44:43.048Z,3.40
2018-01-12T06:47:11.356Z,3.40
2018-01-12T06:49:39.625Z,3.50
2018-01-12T06:52:07.876Z,3.40
2018-01-12T06:54:35.373Z,3.40
2018-01-12T06:57:03.626Z,3.40
2018-01-12T06:59:31.119Z,3.40
2018-01-12T07:01:58.616Z,3.40
2018-01-12T07:04:26.104Z,3.40
2018-01-12T07:06:55.401Z,3.30
2018-01-12T07:09:22.886Z,3.30
2018-01-12T07:11:50.432Z,3.40
2018-01-12T07:14:18.680Z,3.50
2018-01-12T07:16:46.257Z,3.50
2018-01-12T07:19:13.745Z,3.50
2018-01-12T07:21:53.049Z,3.50
2018-01-12T07:24:21.323Z,3.40
2018-01-12T07:26:48.816Z,3.40
2018-01-12T07:29:16.284Z,3.30
2018-01-12T07:31:43.814Z,3.30
2018-01-12T07:34:12.054Z,3.30
2018-01-12T07:36:39.555Z,3.30
2018-01-12T07:39:07.795Z,3.20
2018-01-12T07:41:35.291Z,3.10
2018-01-12T07:44:03.548Z,3.20
2018-01-12T07:46:31.806Z,3.30
2018-01-12T07:48:59.280Z,3.30
2018-01-12T07:51:27.551Z,3.60
2018-01-12T07:53:56.721Z,3.80
2018-01-12T07:56:24.203Z,3.80
2018-01-12T07:58:51.707Z,3.90
2018-01-12T08:01:24.795Z,3.90
2018-01-12T08:03:52.280Z,3.90
2018-01-12T08:06:19.780Z,3.90
2018-01-12T08:08:48.061Z,3.80
2018-01-12T08:11:16.280Z,3.80
2018-01-12T08:13:43.783Z,3.80
2018-01-12T08:16:11.288Z,3.90
2018-01-12T08:18:38.768Z,3.90
2018-01-12T08:21:06.246Z,3.90
2018-01-12T08:23:33.743Z,3.90
2018-01-12T08:26:02.148Z,3.90
2018-01-12T08:28:29.660Z,3.90
2018-01-12T08:30:57.901Z,3.90
2018-01-12T08:33:25.397Z,3.90
2018-01-12T08:35:53.651Z,3.90
2018-01-12T08:38:22.661Z,4.00
2018-01-12T08:40:50.898Z,4.00
2018-01-12T08:43:18.388Z,4.00
2018-01-12T08:45:46.636Z,4.10
2018-01-12T08:48:14.120Z,4.10
2018-01-12T08:50:41.595Z,4.10
2018-01-12T08:53:09.859Z,4.10
2018-01-12T08:55:37.327Z,4.10
2018-01-12T08:58:05.576Z,4.20
2018-01-12T09:00:33.057Z,4.20
2018-01-12T09:03:01.317Z,4.30
2018-01-12T09:05:28.791Z,4.30
2018-01-12T09:07:57.061Z,4.20
2018-01-12T09:10:24.983Z,4.10
2018-01-12T09:12:52.457Z,4.20
2018-01-12T09:15:22.796Z,4.20
2018-01-12T09:17:50.263Z,4.20
2018-01-12T09:20:18.659Z,4.10
2018-01-12T09:22:48.344Z,4.10
2018-01-12T09:25:23.685Z,4.10
2018-01-12T09:27:51.158Z,4.00
2018-01-12T09:30:18.643Z,4.10
2018-01-12T09:32:49.122Z,4.10
2018-01-12T09:35:16.616Z,4.10
2018-01-12T09:37:44.850Z,4.20
2018-01-12T09:40:24.135Z,4.20
2018-01-12T09:42:51.630Z,4.20
2018-01-12T09:45:19.113Z,4.20
2018-01-12T09:48:04.488Z,4.20
2018-01-12T09:50:31.985Z,4.30
2018-01-12T09:52:59.463Z,4.40
2018-01-12T09:55:26.977Z,4.40
2018-01-12T09:57:55.237Z,4.40
2018-01-12T10:00:28.069Z,4.40
2018-01-12T10:02:55.541Z,4.40
2018-01-12T10:05:23.049Z,4.40
2018-01-12T10:08:16.888Z,4.40
2018-01-12T10:10:44.377Z,4.40
2018-01-12T10:13:11.847Z,4.50
2018-01-12T10:15:40.129Z,4.50
2018-01-12T10:18:13.044Z,4.40
2018-01-12T10:20:40.531Z,4.40
2018-01-12T10:23:08.018Z,4.40
2018-01-12T10:25:36.279Z,4.50
2018-01-12T10:28:03.752Z,4.50
2018-01-12T10:30:33.025Z,4.40
2018-01-12T10:33:08.274Z,4.40
2018-01-12T10:48:56.232Z,4.40
2018-01-12T10:51:36.456Z,4.60
2018-01-12T10:54:03.951Z,4.60
2018-01-12T10:56:32.195Z,4.60
2018-01-12T10:58:59.679Z,4.60
2018-01-12T11:01:27.944Z,4.60
2018-01-12T11:03:56.196Z,4.50
2018-01-12T11:06:23.665Z,4.50
2018-01-12T11:08:51.136Z,4.60
2018-01-12T11:11:19.396Z,4.70
2018-01-12T11:13:48.371Z,4.80
2018-01-12T11:16:15.859Z,4.80
2018-01-12T11:18:43.421Z,4.80
2018-01-12T11:21:11.881Z,4.80
2018-01-12T11:23:39.355Z,4.80
2018-01-12T11:26:07.603Z,4.80
2018-01-12T11:28:35.087Z,4.80
2018-01-12T11:31:02.555Z,4.80
2018-01-12T11:33:30.806Z,4.90
2018-01-12T11:35:58.299Z,4.90
2018-01-12T11:38:26.543Z,4.90
2018-01-12T11:41:01.335Z,4.90
2018-01-12T11:43:28.815Z,5.00
2018-01-12T11:45:56.307Z,5.00
2018-01-12T11:48:24.544Z,5.10
2018-01-12T11:50:52.031Z,5.10
2018-01-12T11:53:19.522Z,5.00
2018-01-12T11:55:47.023Z,4.90
2018-01-12T11:58:14.490Z,5.00
2018-01-12T12:00:41.956Z,5.00
2018-01-12T12:03:09.444Z,5.00
2018-01-12T12:05:36.994Z,5.10
2018-01-12T12:08:05.253Z,5.10
2018-01-12T12:10:32.729Z,5.10
2018-01-12T12:13:00.972Z,5.00
2018-01-12T12:15:30.775Z,5.00
2018-01-12T12:17:58.264Z,5.00
2018-01-12T12:20:26.504Z,4.90
2018-01-12T12:22:53.988Z,4.90
2018-01-12T12:25:21.551Z,4.90
2018-01-12T12:27:49.808Z,4.80
2018-01-12T12:30:17.267Z,4.80
2018-01-12T12:32:44.761Z,4.80
2018-01-12T12:35:12.999Z,4.80
2018-01-12T12:37:40.512Z,4.80
2018-01-12T12:40:07.984Z,4.80
2018-01-12T12:42:35.463Z,4.80
2018-01-12T12:45:02.952Z,4.80
2018-01-12T12:47:30.451Z,4.90
2018-01-12T12:49:57.929Z,4.80
2018-01-12T12:52:25.412Z,4.80
2018-01-12T12:54:52.883Z,4.80
2018-01-12T12:57:20.368Z,4.70
2018-01-12T12:59:48.103Z,4.80
2018-01-12T13:02:15.591Z,4.80
2018-01-12T13:04:43.064Z,4.80
2018-01-12T13:07:10.607Z,4.80
2018-01-12T13:09:39.569Z,4.70
2018-01-12T13:12:07.055Z,4.70
2018-01-12T13:14:34.559Z,4.70
2018-01-12T13:17:02.039Z,4.70
2018-01-12T13:19:33.158Z,4.70
2018-01-12T13:22:00.632Z,4.70
2018-01-12T13:24:28.105Z,4.70
2018-01-12T13:26:56.346Z,4.60
2018-01-12T13:29:23.830Z,4.60
2018-01-12T13:31:51.308Z,4.70
2018-01-12T13:34:19.576Z,4.80
2018-01-12T13:36:47.857Z,4.70
2018-01-12T13:39:16.104Z,4.70
2018-01-12T13:41:43.576Z,4.70
2018-01-12T13:44:11.840Z,4.80
2018-01-12T13:46:39.307Z,4.80
2018-01-12T13:49:06.796Z,4.80
2018-01-12T13:51:34.273Z,4.80
2018-01-12T13:54:01.773Z,4.80
2018-01-12T13:56:29.234Z,4.80
2018-01-12T13:58:56.746Z,4.80
2018-01-12T14:01:24.216Z,4.80
2018-01-12T14:03:51.704Z,4.90
2018-01-12T14:06:19.171Z,4.80
2018-01-12T14:08:46.649Z,4.80
2018-01-12T14:11:14.886Z,4.70
2018-01-12T14:13:42.376Z,4.70
2018-01-12T14:16:10.627Z,4.70
2018-01-12T14:18:38.104Z,4.70
2018-01-12T14:21:06.338Z,4.80
2018-01-12T14:23:33.829Z,4.80
2018-01-12T14:26:01.302Z,4.70
2018-01-12T14:28:29.551Z,4.70
2018-01-12T14:30:57.829Z,4.70
2018-01-12T14:33:25.312Z,4.70
2018-01-12T14:35:53.567Z,4.80
2018-01-12T14:38:22.549Z,4.70
2018-01-12T14:40:50.019Z,4.70
2018-01-12T14:43:17.493Z,4.70
2018-01-12T14:45:45.753Z,4.70
2018-01-12T14:48:13.219Z,4.70
2018-01-12T14:50:40.694Z,4.60
2018-01-12T14:53:08.939Z,4.50
2018-01-12T14:55:36.428Z,4.50
2018-01-12T14:58:04.646Z,4.50
2018-01-12T15:00:33.041Z,4.40
2018-01-12T15:03:00.535Z,4.40
2018-01-12T15:05:28.795Z,4.50
2018-01-12T15:07:56.272Z,4.50
2018-01-12T15:10:24.540Z,4.40
2018-01-12T15:12:52.777Z,4.40
2018-01-12T15:15:20.256Z,4.40
2018-01-12T15:17:47.731Z,4.40
2018-01-12T15:20:32.992Z,4.50
2018-01-12T15:23:00.468Z,4.50
2018-01-12T15:25:28.717Z,4.50
2018-01-12T15:27:56.296Z,4.50
2018-01-12T15:30:24.544Z,4.50
2018-01-12T15:32:52.018Z,4.50
2018-01-12T15:35:19.514Z,4.40
2018-01-12T15:37:47.738Z,4.40
2018-01-12T15:40:15.228Z,4.30
2018-01-12T15:42:43.457Z,4.30
2018-01-12T15:45:10.947Z,4.30
2018-01-12T15:47:38.415Z,4.30
2018-01-12T15:50:06.663Z,4.30
2018-01-12T15:52:34.913Z,4.20
2018-01-12T15:55:02.396Z,4.20
2018-01-12T15:57:29.867Z,4.20
2018-01-12T15:59:58.114Z,4.10
2018-01-12T16:02:26.366Z,4.10
2018-01-12T16:04:53.838Z,4.10
2018-01-12T16:07:21.316Z,4.10
2018-01-12T16:09:48.796Z,4.10
2018-01-12T16:12:16.272Z,4.10
2018-01-12T16:14:44.513Z,4.00
2018-01-12T16:17:12.035Z,4.10
2018-01-12T16:19:39.498Z,4.10
2018-01-12T16:22:06.988Z,4.10
2018-01-12T16:24:34.460Z,4.10
2018-01-12T16:27:01.936Z,4.10
2018-01-12T16:29:33.534Z,4.10
2018-01-12T16:32:01.016Z,4.10
2018-01-12T16:34:29.995Z,4.10
2018-01-12T16:36:57.485Z,4.10
2018-01-12T16:39:24.976Z,4.00
2018-01-12T16:41:52.459Z,4.00
2018-01-12T16:44:19.940Z,3.90
2018-01-12T16:46:47.444Z,3.90
2018-01-12T16:49:14.913Z,3.90
2018-01-12T16:51:42.444Z,4.00
2018-01-12T16:54:10.696Z,4.00
2018-01-12T16:56:38.186Z,4.00
2018-01-12T16:59:06.477Z,4.10
2018-01-12T17:01:33.955Z,4.10
2018-01-12T17:04:01.425Z,4.10
2018-01-12T17:06:28.908Z,4.10
2018-01-12T17:08:56.385Z,4.10
2018-01-12T17:11:24.633Z,4.10
2018-01-12T17:13:52.127Z,4.10
2018-01-12T17:16:19.625Z,4.10
2018-01-12T17:18:47.115Z,4.10
2018-01-12T17:21:14.604Z,4.10
2018-01-12T17:23:42.847Z,4.10
2018-01-12T17:26:10.331Z,4.10
2018-01-12T17:28:38.577Z,4.10
2018-01-12T17:31:07.559Z,4.10
2018-01-12T17:33:35.031Z,4.20
2018-01-12T17:36:02.515Z,4.20
2018-01-12T17:38:30.777Z,4.20
2018-01-12T17:40:59.032Z,4.20
2018-01-12T17:43:26.527Z,4.20
2018-01-12T17:45:54.780Z,4.20
2018-01-12T17:48:22.308Z,4.20
2018-01-12T17:50:49.780Z,4.20
2018-01-12T17:53:17.268Z,4.20
2018-01-12T17:55:46.430Z,4.20
2018-01-12T17:58:13.903Z,4.20
2018-01-12T18:00:41.371Z,4.20
2018-01-12T18:03:09.640Z,4.20
2018-01-12T18:05:37.119Z,4.20
2018-01-12T18:08:05.364Z,4.00
2018-01-12T18:10:32.858Z,4.00
2018-01-12T18:13:01.104Z,4.10
2018-01-12T18:15:28.591Z,4.00
2018-01-12T18:17:56.075Z,4.10
2018-01-12T18:20:23.552Z,4.10
2018-01-12T18:22:51.048Z,4.00
2018-01-12T18:25:19.283Z,4.10
2018-01-12T18:27:46.767Z,4.10
2018-01-12T18:30:14.268Z,4.10
2018-01-12T18:32:41.741Z,4.10
2018-01-12T18:35:09.240Z,4.10
2018-01-12T18:40:29.568Z,4.10
2018-01-12T18:42:57.834Z,4.10
2018-01-12T18:45:25.344Z,4.00
2018-01-12T18:47:52.815Z,4.00
2018-01-12T18:50:20.312Z,4.00
2018-01-12T18:52:47.795Z,4.00
2018-01-12T18:55:15.285Z,4.00
2018-01-12T18:57:42.778Z,4.00
2018-01-12T19:00:11.207Z,4.00
2018-01-12T19:02:38.693Z,4.00
2018-01-12T19:05:06.233Z,4.00
2018-01-12T19:07:34.436Z,4.00
2018-01-12T19:10:01.931Z,4.00
2018-01-12T19:12:30.186Z,4.10
2018-01-12T19:14:57.717Z,4.10
2018-01-12T19:17:25.195Z,4.00
2018-01-12T19:19:52.694Z,4.10
2018-01-12T19:22:21.843Z,4.10
2018-01-12T19:24:49.334Z,4.10
2018-01-12T19:27:17.572Z,4.00
2018-01-12T19:29:45.668Z,4.00
2018-01-12T19:32:13.968Z,4.00
2018-01-12T19:34:42.223Z,4.00
2018-01-12T19:37:10.472Z,4.00
2018-01-12T19:39:37.957Z,4.00
2018-01-12T19:42:06.208Z,3.90
2018-01-12T19:44:33.763Z,3.90
2018-01-12T19:47:01.248Z,3.90
2018-01-12T19:49:28.731Z,3.90
2018-01-12T19:51:56.288Z,3.90
2018-01-12T19:54:24.528Z,4.00
2018-01-12T19:56:52.032Z,4.00
2018-01-12T19:59:19.509Z,4.00
2018-01-12T20:01:46.992Z,4.00
2018-01-12T20:04:14.460Z,4.00
2018-01-12T20:06:43.569Z,4.00
2018-01-12T20:09:11.050Z,4.00
2018-01-12T20:11:39.393Z,4.00
2018-01-12T20:14:06.873Z,3.90
2018-01-12T20:16:34.395Z,4.00
2018-01-12T20:19:03.076Z,4.00
2018-01-12T20:21:30.577Z,4.00
2018-01-12T20:23:58.857Z,4.10
2018-01-12T20:26:27.104Z,4.10
2018-01-12T20:28:54.576Z,4.10
2018-01-12T20:31:22.911Z,4.10
2018-01-12T20:33:50.424Z,4.10
2018-01-12T20:36:18.738Z,4.10
2018-01-12T20:38:46.222Z,4.10
2018-01-12T20:41:13.702Z,4.10
2018-01-12T20:43:42.008Z,4.10
2018-01-12T20:46:09.489Z,4.10
2018-01-12T20:48:37.021Z,4.00
2018-01-12T20:51:04.504Z,4.00
2018-01-12T20:53:31.974Z,4.10
2018-01-12T20:55:59.463Z,4.00
2018-01-12T20:58:28.454Z,4.00
2018-01-12T21:00:55.974Z,4.00
2018-01-12T21:03:23.477Z,4.00
2018-01-12T21:05:51.773Z,4.00
2018-01-12T21:08:20.066Z,3.90
2018-01-12T21:10:47.549Z,3.90
2018-01-12T21:13:15.024Z,3.90
2018-01-12T21:15:42.547Z,4.00
2018-01-12T21:18:10.094Z,4.00
2018-01-12T21:20:37.603Z,3.90
2018-01-12T21:23:05.075Z,3.90
2018-01-12T21:25:32.599Z,3.90
2018-01-12T21:28:00.082Z,3.90
2018-01-12T21:30:28.446Z,3.90
2018-01-12T21:32:55.940Z,3.90
2018-01-12T21:35:24.192Z,3.90
2018-01-12T21:37:51.695Z,3.90
2018-01-12T21:40:19.220Z,3.90
2018-01-12T21:42:46.727Z,3.90
2018-01-12T21:45:14.208Z,3.90
2018-01-12T21:47:41.699Z,4.00
2018-01-12T21:50:09.207Z,4.00
2018-01-12T21:52:36.691Z,4.00
2018-01-12T21:55:04.159Z,4.00
2018-01-12T21:57:31.647Z,3.90
2018-01-12T21:59:59.897Z,4.00
2018-01-12T22:02:28.883Z,3.80
2018-01-12T22:04:56.401Z,3.80
2018-01-12T22:07:23.886Z,3.90
2018-01-12T22:09:51.422Z,3.90
2018-01-12T22:12:18.943Z,3.90
2018-01-12T22:14:47.183Z,3.90
2018-01-12T22:17:14.720Z,3.90
2018-01-12T22:19:42.200Z,4.00
2018-01-12T22:22:09.746Z,3.90
2018-01-12T22:24:37.276Z,3.90
2018-01-12T22:27:05.512Z,3.90
2018-01-12T22:29:33.034Z,4.00
2018-01-12T22:32:00.516Z,4.00
2018-01-12T22:34:28.010Z,4.00
2018-01-12T22:36:56.231Z,3.90
2018-01-12T22:39:23.719Z,3.90
2018-01-12T22:41:51.200Z,4.00
2018-01-12T22:44:19.502Z,3.90
2018-01-12T22:46:46.972Z,3.90
2018-01-12T22:49:14.456Z,3.90
2018-01-12T22:51:41.952Z,3.90
2018-01-12T22:54:10.250Z,3.90
2018-01-12T22:56:37.727Z,3.90
2018-01-12T22:59:05.234Z,3.90
2018-01-12T23:01:32.703Z,3.90
2018-01-12T23:04:00.982Z,4.00
2018-01-12T23:06:29.203Z,4.00
2018-01-12T23:08:56.686Z,4.00
2018-01-12T23:11:24.165Z,4.00
2018-01-12T23:13:52.416Z,3.90
2018-01-12T23:16:19.904Z,3.90
2018-01-12T23:18:48.152Z,3.80
2018-01-12T23:21:17.081Z,3.80
2018-01-12T23:23:44.616Z,3.80
2018-01-12T23:26:12.210Z,3.90
2018-01-12T23:28:39.709Z,3.90
2018-01-12T23:31:07.180Z,4.00
2018-01-12T23:33:34.672Z,3.90
2018-01-12T23:36:02.148Z,3.90
2018-01-12T23:38:29.669Z,3.80
2018-01-12T23:40:57.136Z,3.80
2018-01-12T23:43:25.384Z,3.80
2018-01-12T23:45:52.865Z,3.80
2018-01-12T23:48:21.107Z,3.90
2018-01-12T23:50:49.585Z,3.90
2018-01-12T23:53:17.116Z,3.90
2018-01-12T23:55:44.587Z,3.80
2018-01-12T23:58:12.068Z,3.90
